sensor_id;sensor_type;location;lat;lon;timestamp;P1;durP1;ratioP1;P2;durP2;ratioP2
54599;SDS011;40500;51.084;16.958;2023-06-19T00:02:18;5.50;;;5.00;;
54599;SDS011;40500;51.084;16.958;2023-06-19T00:04:49;5.10;;;4.60;;
54599;SDS011;40500;51.084;16.958;2023-06-19T00:07:20;6.80;;;5.70;;
54599;SDS011;40500;51.084;16.958;2023-06-19T00:09:55;5.60;;;5.10;;
54599;SDS011;40500;51.084;16.958;2023-06-19T00:12:33;7.30;;;5.00;;
54599;SDS011;40500;51.084;16.958;2023-06-19T00:15:10;5.20;;;4.80;;
54599;SDS011;40500;51.084;16.958;2023-06-19T00:17:41;5.00;;;4.50;;
54599;SDS011;40500;51.084;16.958;2023-06-19T00:20:13;7.50;;;5.30;;
54599;SDS011;40500;51.084;16.958;2023-06-19T00:22:44;5.60;;;5.10;;
54599;SDS011;40500;51.084;16.958;2023-06-19T00:25:20;6.80;;;5.60;;
54599;SDS011;40500;51.084;16.958;2023-06-19T00:27:53;5.90;;;5.30;;
54599;SDS011;40500;51.084;16.958;2023-06-19T00:30:26;5.90;;;5.30;;
54599;SDS011;40500;51.084;16.958;2023-06-19T00:33:05;6.30;;;5.10;;
54599;SDS011;40500;51.084;16.958;2023-06-19T00:35:36;7.50;;;5.50;;
54599;SDS011;40500;51.084;16.958;2023-06-19T00:38:07;6.40;;;5.80;;
54599;SDS011;40500;51.084;16.958;2023-06-19T00:40:38;7.60;;;5.30;;
54599;SDS011;40500;51.084;16.958;2023-06-19T00:43:10;4.90;;;4.40;;
54599;SDS011;40500;51.084;16.958;2023-06-19T00:45:41;7.70;;;5.00;;
54599;SDS011;40500;51.084;16.958;2023-06-19T00:48:14;7.10;;;4.60;;
54599;SDS011;40500;51.084;16.958;2023-06-19T00:50:54;5.80;;;5.20;;
54599;SDS011;40500;51.084;16.958;2023-06-19T00:53:28;5.90;;;5.00;;
54599;SDS011;40500;51.084;16.958;2023-06-19T00:56:01;6.60;;;4.80;;
54599;SDS011;40500;51.084;16.958;2023-06-19T00:58:35;4.70;;;4.30;;
54599;SDS011;40500;51.084;16.958;2023-06-19T01:01:09;4.70;;;4.20;;
54599;SDS011;40500;51.084;16.958;2023-06-19T01:03:41;5.40;;;4.80;;
54599;SDS011;40500;51.084;16.958;2023-06-19T01:06:19;6.20;;;5.10;;
54599;SDS011;40500;51.084;16.958;2023-06-19T01:08:59;5.60;;;5.10;;
54599;SDS011;40500;51.084;16.958;2023-06-19T01:11:33;6.00;;;5.20;;
54599;SDS011;40500;51.084;16.958;2023-06-19T01:14:14;5.70;;;5.00;;
54599;SDS011;40500;51.084;16.958;2023-06-19T01:16:50;4.80;;;4.40;;
54599;SDS011;40500;51.084;16.958;2023-06-19T01:19:25;5.30;;;4.90;;
54599;SDS011;40500;51.084;16.958;2023-06-19T01:22:04;7.10;;;5.80;;
54599;SDS011;40500;51.084;16.958;2023-06-19T01:24:36;5.70;;;4.90;;
54599;SDS011;40500;51.084;16.958;2023-06-19T01:27:08;7.10;;;5.30;;
54599;SDS011;40500;51.084;16.958;2023-06-19T01:29:41;7.40;;;5.90;;
54599;SDS011;40500;51.084;16.958;2023-06-19T01:32:13;6.20;;;5.40;;
54599;SDS011;40500;51.084;16.958;2023-06-19T01:34:48;4.80;;;4.40;;
54599;SDS011;40500;51.084;16.958;2023-06-19T01:37:22;5.50;;;5.00;;
54599;SDS011;40500;51.084;16.958;2023-06-19T01:39:55;6.70;;;4.80;;
54599;SDS011;40500;51.084;16.958;2023-06-19T01:42:27;5.70;;;5.20;;
54599;SDS011;40500;51.084;16.958;2023-06-19T01:44:57;5.50;;;5.00;;
54599;SDS011;40500;51.084;16.958;2023-06-19T01:47:30;6.30;;;5.60;;
54599;SDS011;40500;51.084;16.958;2023-06-19T01:50:03;8.50;;;6.50;;
54599;SDS011;40500;51.084;16.958;2023-06-19T01:52:37;6.50;;;5.80;;
54599;SDS011;40500;51.084;16.958;2023-06-19T01:55:12;6.80;;;6.20;;
54599;SDS011;40500;51.084;16.958;2023-06-19T01:57:43;6.90;;;6.20;;
54599;SDS011;40500;51.084;16.958;2023-06-19T02:00:14;6.80;;;6.10;;
54599;SDS011;40500;51.084;16.958;2023-06-19T02:02:47;7.70;;;6.80;;
54599;SDS011;40500;51.084;16.958;2023-06-19T02:05:21;11.90;;;6.60;;
54599;SDS011;40500;51.084;16.958;2023-06-19T02:07:52;8.30;;;7.50;;
54599;SDS011;40500;51.084;16.958;2023-06-19T02:10:26;8.00;;;7.20;;
54599;SDS011;40500;51.084;16.958;2023-06-19T02:12:57;8.80;;;7.80;;
54599;SDS011;40500;51.084;16.958;2023-06-19T02:15:27;8.40;;;7.00;;
54599;SDS011;40500;51.084;16.958;2023-06-19T02:17:59;9.10;;;7.00;;
54599;SDS011;40500;51.084;16.958;2023-06-19T02:20:30;10.50;;;7.50;;
54599;SDS011;40500;51.084;16.958;2023-06-19T02:23:02;8.60;;;7.70;;
54599;SDS011;40500;51.084;16.958;2023-06-19T02:25:33;7.40;;;6.60;;
54599;SDS011;40500;51.084;16.958;2023-06-19T02:28:04;8.90;;;7.50;;
54599;SDS011;40500;51.084;16.958;2023-06-19T02:30:35;7.10;;;5.90;;
54599;SDS011;40500;51.084;16.958;2023-06-19T02:33:06;8.20;;;6.30;;
54599;SDS011;40500;51.084;16.958;2023-06-19T02:35:38;8.20;;;6.30;;
54599;SDS011;40500;51.084;16.958;2023-06-19T02:38:09;9.90;;;5.80;;
54599;SDS011;40500;51.084;16.958;2023-06-19T02:40:42;8.60;;;6.40;;
54599;SDS011;40500;51.084;16.958;2023-06-19T02:43:13;8.00;;;7.20;;
54599;SDS011;40500;51.084;16.958;2023-06-19T02:45:44;11.60;;;8.70;;
54599;SDS011;40500;51.084;16.958;2023-06-19T02:48:14;8.70;;;6.40;;
54599;SDS011;40500;51.084;16.958;2023-06-19T02:50:46;6.70;;;5.90;;
54599;SDS011;40500;51.084;16.958;2023-06-19T02:53:21;6.70;;;6.00;;
54599;SDS011;40500;51.084;16.958;2023-06-19T02:55:52;6.00;;;5.40;;
54599;SDS011;40500;51.084;16.958;2023-06-19T02:58:22;6.60;;;5.80;;
54599;SDS011;40500;51.084;16.958;2023-06-19T03:00:56;7.20;;;6.40;;
54599;SDS011;40500;51.084;16.958;2023-06-19T03:03:28;11.70;;;8.00;;
54599;SDS011;40500;51.084;16.958;2023-06-19T03:06:05;9.50;;;8.10;;
54599;SDS011;40500;51.084;16.958;2023-06-19T03:08:37;9.10;;;7.80;;
54599;SDS011;40500;51.084;16.958;2023-06-19T03:11:07;8.20;;;6.70;;
54599;SDS011;40500;51.084;16.958;2023-06-19T03:13:45;7.90;;;6.90;;
54599;SDS011;40500;51.084;16.958;2023-06-19T03:16:18;8.90;;;7.20;;
54599;SDS011;40500;51.084;16.958;2023-06-19T03:18:49;8.00;;;7.10;;
54599;SDS011;40500;51.084;16.958;2023-06-19T03:21:22;8.50;;;7.10;;
54599;SDS011;40500;51.084;16.958;2023-06-19T03:23:53;6.70;;;5.80;;
54599;SDS011;40500;51.084;16.958;2023-06-19T03:26:24;9.70;;;6.30;;
54599;SDS011;40500;51.084;16.958;2023-06-19T03:29:00;8.90;;;6.60;;
54599;SDS011;40500;51.084;16.958;2023-06-19T03:31:43;8.90;;;7.60;;
54599;SDS011;40500;51.084;16.958;2023-06-19T03:34:16;10.80;;;6.90;;
54599;SDS011;40500;51.084;16.958;2023-06-19T03:36:50;8.50;;;7.60;;
54599;SDS011;40500;51.084;16.958;2023-06-19T03:39:24;11.00;;;6.40;;
54599;SDS011;40500;51.084;16.958;2023-06-19T03:41:59;8.80;;;7.20;;
54599;SDS011;40500;51.084;16.958;2023-06-19T03:44:31;9.70;;;8.40;;
54599;SDS011;40500;51.084;16.958;2023-06-19T03:47:02;11.20;;;8.30;;
54599;SDS011;40500;51.084;16.958;2023-06-19T03:49:34;9.50;;;8.10;;
54599;SDS011;40500;51.084;16.958;2023-06-19T03:52:08;10.40;;;8.80;;
54599;SDS011;40500;51.084;16.958;2023-06-19T03:54:38;10.00;;;8.30;;
54599;SDS011;40500;51.084;16.958;2023-06-19T03:57:14;10.20;;;7.70;;
54599;SDS011;40500;51.084;16.958;2023-06-19T03:59:45;11.90;;;8.30;;
54599;SDS011;40500;51.084;16.958;2023-06-19T04:02:16;10.20;;;8.60;;
54599;SDS011;40500;51.084;16.958;2023-06-19T04:04:47;10.30;;;9.00;;
54599;SDS011;40500;51.084;16.958;2023-06-19T04:07:21;10.10;;;9.00;;
54599;SDS011;40500;51.084;16.958;2023-06-19T04:09:53;11.70;;;9.60;;
54599;SDS011;40500;51.084;16.958;2023-06-19T04:12:25;10.00;;;9.10;;
54599;SDS011;40500;51.084;16.958;2023-06-19T04:15:05;10.20;;;8.70;;
54599;SDS011;40500;51.084;16.958;2023-06-19T04:17:36;10.10;;;9.00;;
54599;SDS011;40500;51.084;16.958;2023-06-19T04:20:08;10.90;;;9.40;;
54599;SDS011;40500;51.084;16.958;2023-06-19T04:22:40;12.40;;;9.70;;
54599;SDS011;40500;51.084;16.958;2023-06-19T04:25:10;12.40;;;10.60;;
54599;SDS011;40500;51.084;16.958;2023-06-19T04:27:43;10.30;;;9.20;;
54599;SDS011;40500;51.084;16.958;2023-06-19T04:30:14;11.10;;;9.60;;
54599;SDS011;40500;51.084;16.958;2023-06-19T04:32:45;11.00;;;9.80;;
54599;SDS011;40500;51.084;16.958;2023-06-19T04:35:16;10.80;;;8.70;;
54599;SDS011;40500;51.084;16.958;2023-06-19T04:37:48;11.70;;;9.20;;
54599;SDS011;40500;51.084;16.958;2023-06-19T04:40:21;11.10;;;9.10;;
54599;SDS011;40500;51.084;16.958;2023-06-19T04:42:54;10.80;;;9.70;;
54599;SDS011;40500;51.084;16.958;2023-06-19T04:45:24;10.50;;;9.50;;
54599;SDS011;40500;51.084;16.958;2023-06-19T04:47:57;11.00;;;9.90;;
54599;SDS011;40500;51.084;16.958;2023-06-19T04:50:52;10.60;;;9.40;;
54599;SDS011;40500;51.084;16.958;2023-06-19T04:53:50;13.00;;;9.20;;
54599;SDS011;40500;51.084;16.958;2023-06-19T04:56:57;11.10;;;10.00;;
54599;SDS011;40500;51.084;16.958;2023-06-19T04:59:36;9.60;;;8.60;;
54599;SDS011;40500;51.084;16.958;2023-06-19T05:02:29;12.10;;;9.30;;
54599;SDS011;40500;51.084;16.958;2023-06-19T05:08:51;10.40;;;8.70;;
54599;SDS011;40500;51.084;16.958;2023-06-19T05:11:24;12.60;;;8.80;;
54599;SDS011;40500;51.084;16.958;2023-06-19T05:14:00;14.80;;;9.60;;
54599;SDS011;40500;51.084;16.958;2023-06-19T05:16:59;10.40;;;9.20;;
54599;SDS011;40500;51.084;16.958;2023-06-19T05:19:55;10.90;;;8.50;;
54599;SDS011;40500;51.084;16.958;2023-06-19T05:22:50;9.80;;;8.80;;
54599;SDS011;40500;51.084;16.958;2023-06-19T05:25:23;10.50;;;9.30;;
54599;SDS011;40500;51.084;16.958;2023-06-19T05:27:55;9.90;;;8.70;;
54599;SDS011;40500;51.084;16.958;2023-06-19T05:33:29;9.20;;;7.70;;
54599;SDS011;40500;51.084;16.958;2023-06-19T05:36:20;9.60;;;8.10;;
54599;SDS011;40500;51.084;16.958;2023-06-19T05:38:52;10.80;;;8.50;;
54599;SDS011;40500;51.084;16.958;2023-06-19T05:41:26;11.30;;;8.30;;
54599;SDS011;40500;51.084;16.958;2023-06-19T05:44:00;11.40;;;8.00;;
54599;SDS011;40500;51.084;16.958;2023-06-19T05:46:30;11.50;;;8.10;;
54599;SDS011;40500;51.084;16.958;2023-06-19T05:49:03;9.70;;;8.30;;
54599;SDS011;40500;51.084;16.958;2023-06-19T05:51:35;11.20;;;7.60;;
54599;SDS011;40500;51.084;16.958;2023-06-19T05:54:06;7.70;;;6.90;;
54599;SDS011;40500;51.084;16.958;2023-06-19T05:56:37;8.70;;;7.20;;
54599;SDS011;40500;51.084;16.958;2023-06-19T05:59:09;8.50;;;7.20;;
54599;SDS011;40500;51.084;16.958;2023-06-19T06:01:43;7.90;;;7.10;;
54599;SDS011;40500;51.084;16.958;2023-06-19T06:04:16;8.50;;;7.50;;
54599;SDS011;40500;51.084;16.958;2023-06-19T06:06:50;8.70;;;6.90;;
54599;SDS011;40500;51.084;16.958;2023-06-19T06:09:21;9.90;;;6.70;;
54599;SDS011;40500;51.084;16.958;2023-06-19T06:11:53;9.50;;;7.20;;
54599;SDS011;40500;51.084;16.958;2023-06-19T06:14:29;7.30;;;6.60;;
54599;SDS011;40500;51.084;16.958;2023-06-19T06:17:00;8.70;;;6.70;;
54599;SDS011;40500;51.084;16.958;2023-06-19T06:19:33;8.10;;;7.10;;
54599;SDS011;40500;51.084;16.958;2023-06-19T06:22:05;8.90;;;6.60;;
54599;SDS011;40500;51.084;16.958;2023-06-19T06:24:36;9.50;;;6.70;;
54599;SDS011;40500;51.084;16.958;2023-06-19T06:27:12;9.30;;;6.70;;
54599;SDS011;40500;51.084;16.958;2023-06-19T06:29:43;8.40;;;6.30;;
54599;SDS011;40500;51.084;16.958;2023-06-19T06:32:13;7.30;;;6.60;;
54599;SDS011;40500;51.084;16.958;2023-06-19T06:34:45;9.30;;;6.60;;
54599;SDS011;40500;51.084;16.958;2023-06-19T06:37:15;8.00;;;6.50;;
54599;SDS011;40500;51.084;16.958;2023-06-19T06:39:50;8.00;;;6.10;;
54599;SDS011;40500;51.084;16.958;2023-06-19T06:42:20;7.20;;;6.50;;
54599;SDS011;40500;51.084;16.958;2023-06-19T06:44:53;11.10;;;7.20;;
54599;SDS011;40500;51.084;16.958;2023-06-19T06:47:27;18.30;;;7.80;;
54599;SDS011;40500;51.084;16.958;2023-06-19T06:49:58;11.00;;;7.00;;
54599;SDS011;40500;51.084;16.958;2023-06-19T06:52:29;7.50;;;6.50;;
54599;SDS011;40500;51.084;16.958;2023-06-19T06:55:01;10.20;;;6.80;;
54599;SDS011;40500;51.084;16.958;2023-06-19T06:57:35;9.90;;;6.00;;
54599;SDS011;40500;51.084;16.958;2023-06-19T07:00:07;6.80;;;6.10;;
54599;SDS011;40500;51.084;16.958;2023-06-19T07:02:39;9.80;;;6.30;;
54599;SDS011;40500;51.084;16.958;2023-06-19T07:05:10;12.20;;;5.90;;
54599;SDS011;40500;51.084;16.958;2023-06-19T07:07:40;8.70;;;6.10;;
54599;SDS011;40500;51.084;16.958;2023-06-19T07:10:11;9.30;;;6.30;;
54599;SDS011;40500;51.084;16.958;2023-06-19T07:12:45;7.60;;;5.20;;
54599;SDS011;40500;51.084;16.958;2023-06-19T07:15:16;8.60;;;5.80;;
54599;SDS011;40500;51.084;16.958;2023-06-19T07:17:47;7.80;;;5.20;;
54599;SDS011;40500;51.084;16.958;2023-06-19T07:20:20;8.30;;;5.40;;
54599;SDS011;40500;51.084;16.958;2023-06-19T07:22:52;8.90;;;5.60;;
54599;SDS011;40500;51.084;16.958;2023-06-19T07:25:23;6.20;;;5.50;;
54599;SDS011;40500;51.084;16.958;2023-06-19T07:27:53;7.20;;;5.30;;
54599;SDS011;40500;51.084;16.958;2023-06-19T07:30:24;7.30;;;4.90;;
54599;SDS011;40500;51.084;16.958;2023-06-19T07:32:55;7.90;;;5.50;;
54599;SDS011;40500;51.084;16.958;2023-06-19T07:35:26;10.30;;;5.30;;
54599;SDS011;40500;51.084;16.958;2023-06-19T07:37:56;7.30;;;5.10;;
54599;SDS011;40500;51.084;16.958;2023-06-19T07:40:29;8.20;;;4.90;;
54599;SDS011;40500;51.084;16.958;2023-06-19T07:42:59;6.60;;;4.90;;
54599;SDS011;40500;51.084;16.958;2023-06-19T07:45:30;6.30;;;4.70;;
54599;SDS011;40500;51.084;16.958;2023-06-19T07:48:00;5.20;;;4.60;;
54599;SDS011;40500;51.084;16.958;2023-06-19T07:50:33;8.40;;;5.20;;
54599;SDS011;40500;51.084;16.958;2023-06-19T07:53:04;8.80;;;5.20;;
54599;SDS011;40500;51.084;16.958;2023-06-19T07:55:40;8.70;;;5.30;;
54599;SDS011;40500;51.084;16.958;2023-06-19T07:58:11;6.10;;;5.00;;
54599;SDS011;40500;51.084;16.958;2023-06-19T08:00:42;7.70;;;5.20;;
54599;SDS011;40500;51.084;16.958;2023-06-19T08:03:12;7.40;;;5.80;;
54599;SDS011;40500;51.084;16.958;2023-06-19T08:05:44;13.60;;;5.90;;
54599;SDS011;40500;51.084;16.958;2023-06-19T08:08:15;11.00;;;5.80;;
54599;SDS011;40500;51.084;16.958;2023-06-19T08:10:46;9.10;;;5.60;;
54599;SDS011;40500;51.084;16.958;2023-06-19T08:13:16;9.80;;;5.70;;
54599;SDS011;40500;51.084;16.958;2023-06-19T08:15:47;8.70;;;6.10;;
54599;SDS011;40500;51.084;16.958;2023-06-19T08:18:18;10.30;;;5.90;;
54599;SDS011;40500;51.084;16.958;2023-06-19T08:21:00;13.00;;;5.70;;
54599;SDS011;40500;51.084;16.958;2023-06-19T08:23:30;12.00;;;5.30;;
54599;SDS011;40500;51.084;16.958;2023-06-19T08:26:05;7.90;;;5.00;;
54599;SDS011;40500;51.084;16.958;2023-06-19T08:28:49;7.00;;;5.10;;
54599;SDS011;40500;51.084;16.958;2023-06-19T08:31:23;7.80;;;4.80;;
54599;SDS011;40500;51.084;16.958;2023-06-19T08:33:55;5.10;;;4.50;;
54599;SDS011;40500;51.084;16.958;2023-06-19T08:36:25;6.00;;;4.20;;
54599;SDS011;40500;51.084;16.958;2023-06-19T08:38:58;8.30;;;3.90;;
54599;SDS011;40500;51.084;16.958;2023-06-19T08:41:29;7.50;;;4.60;;
54599;SDS011;40500;51.084;16.958;2023-06-19T08:44:01;12.40;;;4.50;;
54599;SDS011;40500;51.084;16.958;2023-06-19T08:46:32;7.30;;;4.20;;
54599;SDS011;40500;51.084;16.958;2023-06-19T08:49:05;12.90;;;4.70;;
54599;SDS011;40500;51.084;16.958;2023-06-19T08:51:40;10.60;;;4.40;;
54599;SDS011;40500;51.084;16.958;2023-06-19T08:54:11;9.10;;;3.90;;
54599;SDS011;40500;51.084;16.958;2023-06-19T08:56:42;4.00;;;3.50;;
54599;SDS011;40500;51.084;16.958;2023-06-19T08:59:16;7.30;;;3.90;;
54599;SDS011;40500;51.084;16.958;2023-06-19T09:01:48;9.30;;;3.70;;
54599;SDS011;40500;51.084;16.958;2023-06-19T09:04:30;10.20;;;4.70;;
54599;SDS011;40500;51.084;16.958;2023-06-19T09:07:01;7.30;;;4.90;;
54599;SDS011;40500;51.084;16.958;2023-06-19T09:09:43;6.30;;;4.10;;
54599;SDS011;40500;51.084;16.958;2023-06-19T09:12:15;5.30;;;3.70;;
54599;SDS011;40500;51.084;16.958;2023-06-19T09:14:56;4.60;;;3.60;;
54599;SDS011;40500;51.084;16.958;2023-06-19T09:17:26;6.30;;;3.80;;
54599;SDS011;40500;51.084;16.958;2023-06-19T09:20:02;6.80;;;4.20;;
54599;SDS011;40500;51.084;16.958;2023-06-19T09:22:34;4.20;;;3.30;;
54599;SDS011;40500;51.084;16.958;2023-06-19T09:25:05;3.10;;;2.80;;
54599;SDS011;40500;51.084;16.958;2023-06-19T09:27:38;8.80;;;3.80;;
54599;SDS011;40500;51.084;16.958;2023-06-19T09:30:14;3.50;;;2.80;;
54599;SDS011;40500;51.084;16.958;2023-06-19T09:32:46;3.30;;;2.70;;
54599;SDS011;40500;51.084;16.958;2023-06-19T09:35:17;3.90;;;2.50;;
54599;SDS011;40500;51.084;16.958;2023-06-19T09:37:48;4.20;;;2.90;;
54599;SDS011;40500;51.084;16.958;2023-06-19T09:40:20;7.70;;;3.30;;
54599;SDS011;40500;51.084;16.958;2023-06-19T09:42:53;3.90;;;2.70;;
54599;SDS011;40500;51.084;16.958;2023-06-19T09:45:28;4.70;;;2.70;;
54599;SDS011;40500;51.084;16.958;2023-06-19T09:47:59;6.60;;;3.50;;
54599;SDS011;40500;51.084;16.958;2023-06-19T09:51:06;3.10;;;2.80;;
54599;SDS011;40500;51.084;16.958;2023-06-19T09:53:45;3.10;;;2.80;;
54599;SDS011;40500;51.084;16.958;2023-06-19T09:56:17;3.20;;;3.00;;
54599;SDS011;40500;51.084;16.958;2023-06-19T09:58:51;3.80;;;3.30;;
54599;SDS011;40500;51.084;16.958;2023-06-19T10:01:25;3.80;;;2.80;;
54599;SDS011;40500;51.084;16.958;2023-06-19T10:04:05;4.60;;;3.50;;
54599;SDS011;40500;51.084;16.958;2023-06-19T10:06:43;8.10;;;3.50;;
54599;SDS011;40500;51.084;16.958;2023-06-19T10:09:15;3.20;;;2.90;;
54599;SDS011;40500;51.084;16.958;2023-06-19T10:11:49;3.20;;;3.00;;
54599;SDS011;40500;51.084;16.958;2023-06-19T10:14:20;4.50;;;3.20;;
54599;SDS011;40500;51.084;16.958;2023-06-19T10:16:55;4.20;;;3.00;;
54599;SDS011;40500;51.084;16.958;2023-06-19T10:19:27;4.50;;;3.20;;
54599;SDS011;40500;51.084;16.958;2023-06-19T10:21:58;3.50;;;3.10;;
54599;SDS011;40500;51.084;16.958;2023-06-19T10:24:30;3.30;;;3.00;;
54599;SDS011;40500;51.084;16.958;2023-06-19T10:27:02;4.90;;;3.40;;
54599;SDS011;40500;51.084;16.958;2023-06-19T10:29:39;3.30;;;2.90;;
54599;SDS011;40500;51.084;16.958;2023-06-19T10:32:30;7.10;;;3.10;;
54599;SDS011;40500;51.084;16.958;2023-06-19T10:35:00;4.60;;;3.10;;
54599;SDS011;40500;51.084;16.958;2023-06-19T10:37:41;5.90;;;2.90;;
54599;SDS011;40500;51.084;16.958;2023-06-19T10:40:12;6.10;;;2.90;;
54599;SDS011;40500;51.084;16.958;2023-06-19T10:42:43;4.00;;;3.00;;
54599;SDS011;40500;51.084;16.958;2023-06-19T10:45:18;5.60;;;2.90;;
54599;SDS011;40500;51.084;16.958;2023-06-19T10:47:56;3.30;;;2.80;;
54599;SDS011;40500;51.084;16.958;2023-06-19T10:50:30;3.70;;;2.60;;
54599;SDS011;40500;51.084;16.958;2023-06-19T10:53:06;6.10;;;2.80;;
54599;SDS011;40500;51.084;16.958;2023-06-19T10:55:36;4.90;;;2.70;;
54599;SDS011;40500;51.084;16.958;2023-06-19T10:58:07;3.20;;;2.80;;
54599;SDS011;40500;51.084;16.958;2023-06-19T11:00:38;6.30;;;3.00;;
54599;SDS011;40500;51.084;16.958;2023-06-19T11:03:08;5.40;;;3.10;;
54599;SDS011;40500;51.084;16.958;2023-06-19T11:05:43;3.70;;;2.70;;
54599;SDS011;40500;51.084;16.958;2023-06-19T11:08:18;3.20;;;2.90;;
54599;SDS011;40500;51.084;16.958;2023-06-19T11:10:50;4.40;;;3.00;;
54599;SDS011;40500;51.084;16.958;2023-06-19T11:13:23;3.80;;;2.90;;
54599;SDS011;40500;51.084;16.958;2023-06-19T11:15:54;4.00;;;2.60;;
54599;SDS011;40500;51.084;16.958;2023-06-19T11:18:26;6.70;;;3.30;;
54599;SDS011;40500;51.084;16.958;2023-06-19T11:20:57;2.80;;;2.60;;
54599;SDS011;40500;51.084;16.958;2023-06-19T11:23:30;4.60;;;2.60;;
54599;SDS011;40500;51.084;16.958;2023-06-19T11:26:03;2.80;;;2.60;;
54599;SDS011;40500;51.084;16.958;2023-06-19T11:28:34;2.60;;;2.40;;
54599;SDS011;40500;51.084;16.958;2023-06-19T11:31:05;2.80;;;2.60;;
54599;SDS011;40500;51.084;16.958;2023-06-19T11:33:37;3.70;;;2.90;;
54599;SDS011;40500;51.084;16.958;2023-06-19T11:36:08;2.80;;;2.40;;
54599;SDS011;40500;51.084;16.958;2023-06-19T11:38:39;3.70;;;2.80;;
54599;SDS011;40500;51.084;16.958;2023-06-19T11:41:24;4.50;;;2.80;;
54599;SDS011;40500;51.084;16.958;2023-06-19T11:44:00;3.90;;;2.80;;
54599;SDS011;40500;51.084;16.958;2023-06-19T11:46:33;4.00;;;2.90;;
54599;SDS011;40500;51.084;16.958;2023-06-19T11:49:11;3.70;;;3.00;;
54599;SDS011;40500;51.084;16.958;2023-06-19T11:51:42;4.40;;;3.00;;
54599;SDS011;40500;51.084;16.958;2023-06-19T11:54:13;3.30;;;2.60;;
54599;SDS011;40500;51.084;16.958;2023-06-19T11:56:45;3.20;;;2.90;;
54599;SDS011;40500;51.084;16.958;2023-06-19T11:59:16;36.10;;;4.00;;
54599;SDS011;40500;51.084;16.958;2023-06-19T12:01:47;7.00;;;2.80;;
54599;SDS011;40500;51.084;16.958;2023-06-19T12:04:17;3.30;;;3.00;;
54599;SDS011;40500;51.084;16.958;2023-06-19T12:06:48;9.20;;;2.90;;
54599;SDS011;40500;51.084;16.958;2023-06-19T12:09:26;2.90;;;2.70;;
54599;SDS011;40500;51.084;16.958;2023-06-19T12:11:58;3.50;;;3.10;;
54599;SDS011;40500;51.084;16.958;2023-06-19T12:14:30;4.40;;;2.80;;
54599;SDS011;40500;51.084;16.958;2023-06-19T12:17:00;3.80;;;3.00;;
54599;SDS011;40500;51.084;16.958;2023-06-19T12:19:31;5.80;;;2.90;;
54599;SDS011;40500;51.084;16.958;2023-06-19T12:22:03;3.20;;;3.00;;
54599;SDS011;40500;51.084;16.958;2023-06-19T12:24:34;6.00;;;2.70;;
54599;SDS011;40500;51.084;16.958;2023-06-19T12:27:05;3.20;;;2.90;;
54599;SDS011;40500;51.084;16.958;2023-06-19T12:29:35;3.30;;;3.00;;
54599;SDS011;40500;51.084;16.958;2023-06-19T12:32:06;3.20;;;3.00;;
54599;SDS011;40500;51.084;16.958;2023-06-19T12:34:40;3.60;;;3.10;;
54599;SDS011;40500;51.084;16.958;2023-06-19T12:37:15;8.00;;;3.20;;
54599;SDS011;40500;51.084;16.958;2023-06-19T12:39:50;3.20;;;2.60;;
54599;SDS011;40500;51.084;16.958;2023-06-19T12:42:21;3.20;;;3.00;;
54599;SDS011;40500;51.084;16.958;2023-06-19T12:44:51;3.80;;;3.00;;
54599;SDS011;40500;51.084;16.958;2023-06-19T12:47:21;5.40;;;3.20;;
54599;SDS011;40500;51.084;16.958;2023-06-19T12:49:52;3.90;;;3.50;;
54599;SDS011;40500;51.084;16.958;2023-06-19T12:52:24;3.80;;;2.90;;
54599;SDS011;40500;51.084;16.958;2023-06-19T12:54:55;3.50;;;3.20;;
54599;SDS011;40500;51.084;16.958;2023-06-19T12:57:27;4.00;;;3.50;;
54599;SDS011;40500;51.084;16.958;2023-06-19T12:59:58;4.80;;;3.10;;
54599;SDS011;40500;51.084;16.958;2023-06-19T13:02:28;3.10;;;2.90;;
54599;SDS011;40500;51.084;16.958;2023-06-19T13:05:00;3.30;;;3.00;;
54599;SDS011;40500;51.084;16.958;2023-06-19T13:07:30;2.90;;;2.70;;
54599;SDS011;40500;51.084;16.958;2023-06-19T13:10:01;5.00;;;3.10;;
54599;SDS011;40500;51.084;16.958;2023-06-19T13:12:33;3.90;;;3.00;;
54599;SDS011;40500;51.084;16.958;2023-06-19T13:15:05;3.50;;;3.10;;
54599;SDS011;40500;51.084;16.958;2023-06-19T13:17:41;3.30;;;3.10;;
54599;SDS011;40500;51.084;16.958;2023-06-19T13:20:12;3.50;;;3.20;;
54599;SDS011;40500;51.084;16.958;2023-06-19T13:22:45;7.90;;;3.40;;
54599;SDS011;40500;51.084;16.958;2023-06-19T13:25:19;4.10;;;3.10;;
54599;SDS011;40500;51.084;16.958;2023-06-19T13:27:49;4.00;;;3.10;;
54599;SDS011;40500;51.084;16.958;2023-06-19T13:30:22;3.60;;;3.20;;
54599;SDS011;40500;51.084;16.958;2023-06-19T13:32:53;3.50;;;3.20;;
54599;SDS011;40500;51.084;16.958;2023-06-19T13:35:24;3.20;;;3.00;;
54599;SDS011;40500;51.084;16.958;2023-06-19T13:38:06;6.90;;;2.90;;
54599;SDS011;40500;51.084;16.958;2023-06-19T13:40:38;4.20;;;3.10;;
54599;SDS011;40500;51.084;16.958;2023-06-19T13:43:10;4.10;;;3.30;;
54599;SDS011;40500;51.084;16.958;2023-06-19T13:45:40;3.40;;;3.10;;
54599;SDS011;40500;51.084;16.958;2023-06-19T13:48:11;4.30;;;3.40;;
54599;SDS011;40500;51.084;16.958;2023-06-19T13:50:43;3.10;;;2.80;;
54599;SDS011;40500;51.084;16.958;2023-06-19T13:53:13;4.20;;;3.10;;
54599;SDS011;40500;51.084;16.958;2023-06-19T13:55:43;3.20;;;2.90;;
54599;SDS011;40500;51.084;16.958;2023-06-19T13:58:15;3.30;;;3.00;;
54599;SDS011;40500;51.084;16.958;2023-06-19T14:00:47;3.20;;;3.00;;
54599;SDS011;40500;51.084;16.958;2023-06-19T14:03:18;3.90;;;2.90;;
54599;SDS011;40500;51.084;16.958;2023-06-19T14:05:48;3.20;;;3.00;;
54599;SDS011;40500;51.084;16.958;2023-06-19T14:08:19;3.50;;;3.20;;
54599;SDS011;40500;51.084;16.958;2023-06-19T14:10:58;3.30;;;3.10;;
54599;SDS011;40500;51.084;16.958;2023-06-19T14:13:28;3.60;;;3.10;;
54599;SDS011;40500;51.084;16.958;2023-06-19T14:15:59;3.40;;;3.10;;
54599;SDS011;40500;51.084;16.958;2023-06-19T14:18:30;5.60;;;3.40;;
54599;SDS011;40500;51.084;16.958;2023-06-19T14:21:01;4.80;;;3.20;;
54599;SDS011;40500;51.084;16.958;2023-06-19T14:23:33;3.60;;;3.20;;
54599;SDS011;40500;51.084;16.958;2023-06-19T14:26:08;3.90;;;3.20;;
54599;SDS011;40500;51.084;16.958;2023-06-19T14:28:41;4.80;;;3.30;;
54599;SDS011;40500;51.084;16.958;2023-06-19T14:31:15;18.20;;;3.60;;
54599;SDS011;40500;51.084;16.958;2023-06-19T14:33:46;5.10;;;3.30;;
54599;SDS011;40500;51.084;16.958;2023-06-19T14:36:16;6.10;;;3.30;;
54599;SDS011;40500;51.084;16.958;2023-06-19T14:38:46;5.60;;;3.50;;
54599;SDS011;40500;51.084;16.958;2023-06-19T14:41:17;3.90;;;3.20;;
54599;SDS011;40500;51.084;16.958;2023-06-19T14:43:50;3.60;;;3.20;;
54599;SDS011;40500;51.084;16.958;2023-06-19T14:46:20;3.10;;;2.70;;
54599;SDS011;40500;51.084;16.958;2023-06-19T14:49:06;4.40;;;2.80;;
54599;SDS011;40500;51.084;16.958;2023-06-19T14:51:38;8.90;;;3.30;;
54599;SDS011;40500;51.084;16.958;2023-06-19T14:54:10;7.50;;;6.20;;
54599;SDS011;40500;51.084;16.958;2023-06-19T14:56:41;4.00;;;3.40;;
54599;SDS011;40500;51.084;16.958;2023-06-19T14:59:14;4.70;;;3.50;;
54599;SDS011;40500;51.084;16.958;2023-06-19T15:01:47;5.50;;;3.20;;
54599;SDS011;40500;51.084;16.958;2023-06-19T15:04:20;3.60;;;3.30;;
54599;SDS011;40500;51.084;16.958;2023-06-19T15:06:50;7.30;;;3.30;;
54599;SDS011;40500;51.084;16.958;2023-06-19T15:09:22;3.80;;;3.20;;
54599;SDS011;40500;51.084;16.958;2023-06-19T15:11:54;3.40;;;2.50;;
54599;SDS011;40500;51.084;16.958;2023-06-19T15:14:26;3.00;;;2.70;;
54599;SDS011;40500;51.084;16.958;2023-06-19T15:16:57;5.20;;;3.80;;